Time;durP1;ratioP1;P1;durP2;ratioP2;P2;SDS_P1;SDS_P2;PMS_P1;PMS_P2;Temp;Humidity;BMP_temperature;BMP_pressure;BME280_temperature;BME280_humidity;BME280_pressure;Samples;Min_cycle;Max_cycle;Signal;HPM_P1;HPM_P2
2024/01/07 00:03:44;;;;;;;3.92;2.45;;;;;;;17.19;55.28;101533.94;10537531;28;20095;-47
2024/01/07 00:08:44;;;;;;;4.65;2.38;;;;;;;17.20;54.82;101535.53;10530189;28;20082;-49
2024/01/07 00:13:45;;;;;;;3.03;2.10;;;;;;;17.19;55.33;101541.16;10523131;28;20072;-49
2024/01/07 00:18:45;;;;;;;4.25;2.20;;;;;;;17.20;55.00;101545.47;10536518;28;20766;-50
2024/01/07 00:23:46;;;;;;;3.47;2.10;;;;;;;17.21;55.74;101555.09;10536776;28;20032;-50
2024/01/07 00:28:46;;;;;;;3.40;2.33;;;;;;;17.20;54.42;101550.81;10535908;28;20020;-47
2024/01/07 00:33:46;;;;;;;3.37;2.40;;;;;;;17.18;54.85;101563.69;10536366;28;20282;-49
2024/01/07 00:38:47;;;;;;;2.72;1.83;;;;;;;17.20;55.90;101566.91;10535755;28;20277;-50
2024/01/07 00:43:47;;;;;;;2.97;2.00;;;;;;;17.21;54.82;101576.53;10535906;28;20040;-50
2024/01/07 00:48:47;;;;;;;4.07;2.20;;;;;;;17.19;55.72;101576.00;10535194;28;20290;-48
2024/01/07 00:53:48;;;;;;;3.50;2.13;;;;;;;17.20;55.13;101581.09;10535317;28;20274;-52
2024/01/07 00:58:48;;;;;;;3.27;1.97;;;;;;;17.21;54.63;101581.91;10535113;28;20037;-51
2024/01/07 01:03:48;;;;;;;3.23;1.97;;;;;;;17.18;54.76;101585.13;10535296;28;20343;-50
2024/01/07 01:08:48;;;;;;;4.07;2.43;;;;;;;17.20;54.59;101588.34;10527355;28;20356;-50
2024/01/07 01:13:49;;;;;;;4.10;2.23;;;;;;;17.19;54.44;101594.78;10521330;28;20343;-49
2024/01/07 01:18:50;;;;;;;3.40;2.25;;;;;;;17.18;55.19;101601.19;10533966;28;20295;-48
2024/01/07 01:23:50;;;;;;;2.80;1.83;;;;;;;17.18;54.43;101607.38;10534390;28;20028;-50
2024/01/07 01:28:50;;;;;;;3.23;1.97;;;;;;;17.19;55.18;101608.16;10533677;28;20031;-48
2024/01/07 01:33:51;;;;;;;4.10;2.30;;;;;;;17.19;55.79;101613.53;10533847;28;20285;-48
2024/01/07 01:38:51;;;;;;;2.93;2.10;;;;;;;17.19;55.92;101625.06;10533415;28;20020;-49
2024/01/07 01:43:51;;;;;;;4.50;2.80;;;;;;;17.19;54.50;101633.09;10533219;28;20282;-48
2024/01/07 01:48:52;;;;;;;2.60;1.75;;;;;;;17.18;55.77;101631.47;10533167;28;20825;-47
2024/01/07 01:53:54;;;;;;;4.13;2.55;;;;;;;17.20;55.42;101636.56;10533422;28;20035;-48
2024/01/07 01:58:55;;;;;;;3.63;2.28;;;;;;;17.20;54.38;101636.56;10532916;28;20080;-50
2024/01/07 02:03:55;;;;;;;3.35;2.08;;;;;;;17.20;55.23;101641.94;10533105;28;20031;-49
2024/01/07 02:08:56;;;;;;;3.40;2.15;;;;;;;17.20;54.67;101656.16;10532412;28;20367;-51
2024/01/07 02:13:56;;;;;;;3.42;2.10;;;;;;;17.18;54.57;101666.31;10532762;28;21397;-51
2024/01/07 02:18:56;;;;;;;4.50;2.42;;;;;;;17.20;55.66;101666.06;10532303;28;20020;-51
2024/01/07 02:23:57;;;;;;;7.03;2.50;;;;;;;17.22;54.52;101671.97;10532655;28;20069;-50
2024/01/07 02:28:57;;;;;;;3.83;2.60;;;;;;;17.22;54.50;101670.09;10532195;28;20286;-49
2024/01/07 02:33:57;;;;;;;3.67;2.10;;;;;;;17.20;55.63;101666.88;10532300;28;20031;-47
2024/01/07 02:38:57;;;;;;;2.80;1.93;;;;;;;17.20;54.35;101679.47;10532051;28;20273;-50
2024/01/07 02:43:58;;;;;;;3.93;2.23;;;;;;;17.18;54.73;101682.41;10514226;28;20274;-51
2024/01/07 02:48:58;;;;;;;3.50;2.60;;;;;;;17.18;54.77;101687.75;10531853;28;20722;-51
2024/01/07 02:53:58;;;;;;;3.83;2.00;;;;;;;17.17;55.56;101693.41;10534201;28;20354;-48
2024/01/07 02:58:59;;;;;;;2.97;2.30;;;;;;;17.17;55.18;101691.50;10539576;28;20305;-50
2024/01/07 03:03:59;;;;;;;3.90;2.53;;;;;;;17.18;54.32;101692.31;10539847;28;20285;-51
2024/01/07 03:09:00;;;;;;;4.17;2.93;;;;;;;17.16;53.88;101711.31;10530623;28;20111;-49
2024/01/07 03:14:00;;;;;;;4.32;2.97;;;;;;;17.17;54.92;101709.47;10527458;28;20297;-51
2024/01/07 03:19:01;;;;;;;4.17;2.43;;;;;;;17.20;55.12;101711.63;10539165;28;20020;-50
2024/01/07 03:24:02;;;;;;;4.40;2.47;;;;;;;17.18;53.75;101714.56;10539307;28;20271;-48
2024/01/07 03:29:02;;;;;;;3.65;2.33;;;;;;;17.18;54.04;101716.44;10538296;28;20024;-48
2024/01/07 03:34:03;;;;;;;4.43;3.05;;;;;;;17.18;54.37;101719.13;10538798;28;20036;-48
2024/01/07 03:39:03;;;;;;;3.73;2.57;;;;;;;17.18;53.68;101714.56;10519901;28;20028;-51
2024/01/07 03:44:03;;;;;;;4.57;2.83;;;;;;;17.18;53.85;101722.59;10538489;28;20277;-50
2024/01/07 03:49:04;;;;;;;2.88;1.88;;;;;;;17.18;53.96;101732.53;10537794;28;20281;-48
2024/01/07 03:54:04;;;;;;;4.03;2.57;;;;;;;17.17;53.71;101739.75;10537461;28;20024;-49
2024/01/07 03:59:05;;;;;;;2.22;1.95;;;;;;;17.17;54.69;101736.28;10537788;28;20266;-50
2024/01/07 04:04:05;;;;;;;3.50;2.37;;;;;;;17.18;54.25;101744.03;10536546;28;20035;-48
2024/01/07 04:09:06;;;;;;;3.72;2.47;;;;;;;17.18;54.00;101753.97;10537257;28;20290;-52
2024/01/07 04:14:06;;;;;;;2.88;2.35;;;;;;;17.21;53.57;101753.44;10536695;28;20546;-50
2024/01/07 04:19:06;;;;;;;3.17;1.70;;;;;;;17.20;53.59;101757.19;10537052;28;20643;-52
2024/01/07 04:24:07;;;;;;;3.93;2.50;;;;;;;17.19;53.88;101761.75;10536116;28;20028;-51
2024/01/07 04:29:07;;;;;;;3.07;2.00;;;;;;;17.16;53.69;101772.97;10536484;28;20951;-48
2024/01/07 04:34:07;;;;;;;3.13;2.00;;;;;;;17.18;54.72;101783.44;10535974;28;20282;-48
2024/01/07 04:39:09;;;;;;;3.70;2.40;;;;;;;17.16;54.50;101783.69;10536092;28;20273;-52
2024/01/07 04:44:10;;;;;;;3.75;2.10;;;;;;;17.16;54.67;101786.34;10535648;28;20752;-50
2024/01/07 04:49:10;;;;;;;2.95;2.05;;;;;;;17.16;54.58;101794.41;10535722;28;20034;-52
2024/01/07 04:54:10;;;;;;;3.50;2.40;;;;;;;17.17;54.99;101798.72;10535194;28;20020;-48
2024/01/07 04:59:11;;;;;;;2.80;2.03;;;;;;;17.18;54.17;101799.53;10517312;28;20021;-50
2024/01/07 05:04:11;;;;;;;3.30;2.53;;;;;;;17.16;54.29;101812.34;10516594;28;20274;-49
2024/01/07 05:09:12;;;;;;;3.90;2.38;;;;;;;17.19;53.87;101817.22;10534969;28;20770;-48
2024/01/07 05:14:12;;;;;;;3.10;1.90;;;;;;;17.17;54.10;101822.03;10528884;28;20094;-52
2024/01/07 05:19:12;;;;;;;3.85;2.50;;;;;;;17.16;54.37;101825.75;10508214;28;20313;-49
2024/01/07 05:24:13;;;;;;;3.40;2.00;;;;;;;17.16;54.63;101831.09;10506652;28;20047;-50
2024/01/07 05:29:13;;;;;;;3.80;2.27;;;;;;;17.16;53.99;101839.94;10512325;28;20654;-48
2024/01/07 05:34:13;;;;;;;3.00;2.27;;;;;;;17.14;53.89;101839.41;10510714;28;20290;-48
2024/01/07 05:39:14;;;;;;;3.08;2.08;;;;;;;17.15;53.84;101856.28;10510103;28;20301;-51
2024/01/07 05:44:14;;;;;;;3.08;1.75;;;;;;;17.16;53.45;101858.72;10510097;28;20024;-49
2024/01/07 05:49:14;;;;;;;3.63;2.13;;;;;;;17.15;53.21;101870.50;10513814;28;20032;-51
2024/01/07 05:54:15;;;;;;;3.67;1.80;;;;;;;17.14;53.60;101873.44;10531250;28;20293;-51
2024/01/07 05:59:15;;;;;;;2.67;2.00;;;;;;;17.15;54.89;101881.22;10516069;28;20335;-48
2024/01/07 06:04:15;;;;;;;2.63;1.83;;;;;;;17.15;54.27;101885.78;10527453;28;20293;-48
2024/01/07 06:09:16;;;;;;;3.00;2.38;;;;;;;17.20;54.73;101897.34;10518797;28;20644;-52
2024/01/07 06:14:16;;;;;;;2.80;1.90;;;;;;;17.17;55.63;101903.25;10507104;28;20503;-51
2024/01/07 06:19:16;;;;;;;6.60;2.70;;;;;;;17.16;55.61;101900.78;10528844;28;20274;-47
2024/01/07 06:24:17;;;;;;;4.05;2.33;;;;;;;17.19;55.87;101909.16;10514462;28;20352;-48
2024/01/07 06:29:18;;;;;;;4.27;3.00;;;;;;;17.26;55.45;101916.94;10536814;28;20020;-49
2024/01/07 06:34:19;;;;;;;7.30;3.47;;;;;;;17.36;55.84;101924.25;10521774;28;20277;-47
2024/01/07 06:39:19;;;;;;;5.07;2.90;;;;;;;17.37;55.84;101933.91;10540416;28;20031;-49
2024/01/07 06:44:19;;;;;;;5.63;3.03;;;;;;;17.48;55.63;101940.97;10540431;28;20277;-49
2024/01/07 06:49:19;;;;;;;9.03;2.90;;;;;;;17.60;54.91;101943.47;10540417;28;20304;-55
2024/01/07 06:54:20;;;;;;;10.30;2.93;;;;;;;17.38;56.62;101963.16;10539237;28;20361;-55
2024/01/07 06:59:20;;;;;;;16.47;3.60;;;;;;;17.29;57.02;101955.88;10537130;28;20361;-51
2024/01/07 07:04:20;;;;;;;12.73;3.70;;;;;;;17.33;56.11;101960.44;10528390;28;20385;-48
2024/01/07 07:09:21;;;;;;;17.07;3.57;;;;;;;17.31;56.76;101969.81;10539391;28;20324;-48
2024/01/07 07:14:21;;;;;;;21.27;4.07;;;;;;;17.27;56.92;101976.72;10538883;28;20792;-49
2024/01/07 07:19:21;;;;;;;11.73;3.47;;;;;;;17.16;56.69;101982.00;10539050;28;20367;-46
2024/01/07 07:24:22;;;;;;;14.10;3.45;;;;;;;17.16;56.26;101994.59;10538641;28;20372;-48
2024/01/07 07:29:22;;;;;;;7.30;3.67;;;;;;;17.13;56.86;102003.97;10538932;28;20128;-47
2024/01/07 07:34:22;;;;;;;12.13;3.90;;;;;;;17.11;56.29;102010.63;10538699;28;20054;-48
2024/01/07 07:39:23;;;;;;;10.38;3.00;;;;;;;17.03;57.04;102019.13;10537392;28;20324;-47
2024/01/07 07:44:23;;;;;;;11.10;4.47;;;;;;;17.00;55.57;102025.00;10538273;28;20051;-49
2024/01/07 07:49:23;;;;;;;23.57;3.67;;;;;;;16.99;55.42;102034.09;10525865;28;20733;-51
2024/01/07 07:54:24;;;;;;;11.35;2.92;;;;;;;16.91;57.41;102046.06;10534382;28;20280;-46
2024/01/07 07:59:24;;;;;;;9.25;2.50;;;;;;;16.91;56.64;102046.06;10499017;28;20031;-48
2024/01/07 08:04:26;;;;;;;11.03;3.47;;;;;;;16.89;55.58;102058.91;10524667;28;20098;-47
2024/01/07 08:09:26;;;;;;;8.82;3.58;;;;;;;16.91;54.84;102064.81;10511556;28;20278;-44
2024/01/07 08:14:27;;;;;;;5.90;2.90;;;;;;;16.92;55.83;102077.97;10528666;28;20062;-43
2024/01/07 08:19:27;;;;;;;8.83;2.47;;;;;;;16.91;55.04;102078.22;10536813;28;20272;-43
2024/01/07 08:24:27;;;;;;;6.10;2.55;;;;;;;16.93;55.57;102090.31;10536495;28;20293;-45
2024/01/07 08:29:28;;;;;;;6.67;3.20;;;;;;;16.90;55.73;102098.84;10536150;28;20028;-46
2024/01/07 08:34:28;;;;;;;12.63;2.92;;;;;;;16.88;56.30;102106.31;10535915;28;20284;-44
2024/01/07 08:39:29;;;;;;;7.93;2.87;;;;;;;16.88;55.70;102106.31;10536142;28;20028;-44
2024/01/07 08:44:30;;;;;;;8.30;3.38;;;;;;;16.87;55.82;102115.41;10535720;28;20794;-46
2024/01/07 08:49:33;;;;;;;4.47;2.45;;;;;;;16.90;55.10;102124.81;10535874;28;20023;-46
2024/01/07 08:54:33;;;;;;;5.55;2.40;;;;;;;16.88;55.11;102129.63;10517284;28;20034;-45
2024/01/07 08:59:33;;;;;;;5.00;2.60;;;;;;;16.86;55.02;102140.59;10535395;28;20024;-43
2024/01/07 09:04:33;;;;;;;6.43;2.30;;;;;;;16.88;53.78;102151.06;10534590;28;20357;-44
2024/01/07 09:09:34;;;;;;;4.68;2.15;;;;;;;16.86;54.54;102158.53;10534664;28;20808;-45
2024/01/07 09:14:34;;;;;;;5.75;2.65;;;;;;;16.88;53.90;102167.13;10534193;28;20043;-47
2024/01/07 09:19:34;;;;;;;3.87;2.07;;;;;;;16.87;55.71;102176.22;10516213;28;20073;-44
2024/01/07 09:24:35;;;;;;;3.60;1.92;;;;;;;16.82;54.90;102182.34;10534180;28;20285;-45
2024/01/07 09:29:35;;;;;;;3.40;2.10;;;;;;;16.85;55.37;102184.53;10534234;28;20020;-44
2024/01/07 09:34:36;;;;;;;3.57;2.00;;;;;;;16.81;55.37;102194.13;10533744;28;20036;-43
2024/01/07 09:39:43;;;;;;;3.37;2.20;;;;;;;16.84;53.98;102204.34;10533894;28;20300;-44
2024/01/07 09:44:44;;;;;;;4.80;2.50;;;;;;;16.79;53.94;102200.75;10533181;28;20282;-44
2024/01/07 09:49:45;;;;;;;3.42;2.28;;;;;;;16.78;55.18;102216.03;10533776;28;21364;-44
2024/01/07 09:54:51;;;;;;;3.67;1.95;;;;;;;16.81;53.81;102222.75;10533071;28;20051;-47
2024/01/07 09:59:52;;;;;;;3.33;1.90;;;;;;;16.79;54.24;102230.22;10533277;28;20474;-47
2024/01/07 10:04:52;;;;;;;3.22;1.92;;;;;;;16.78;55.69;102231.28;10532190;28;20027;-45
2024/01/07 10:09:54;;;;;;;3.37;1.87;;;;;;;16.80;54.54;102238.00;10516923;28;20488;-44
2024/01/07 10:14:55;;;;;;;4.05;1.95;;;;;;;16.79;53.63;102236.38;10528211;28;20293;-46
2024/01/07 10:19:56;;;;;;;2.70;1.85;;;;;;;16.80;53.82;102240.69;10532801;28;20368;-44
2024/01/07 10:24:56;;;;;;;3.15;2.00;;;;;;;16.78;54.94;102242.81;10532424;28;20072;-45
2024/01/07 10:29:58;;;;;;;2.77;1.80;;;;;;;16.78;55.38;102250.03;10532317;28;20016;-44
2024/01/07 10:35:03;;;;;;;4.95;1.80;;;;;;;16.81;55.54;102260.25;10532197;28;20270;-45
2024/01/07 10:40:04;;;;;;;5.22;1.80;;;;;;;16.79;55.60;102259.69;10532514;28;20621;-46
2024/01/07 10:45:04;;;;;;;2.90;1.63;;;;;;;16.79;54.92;102263.19;10513895;28;20036;-46
2024/01/07 10:50:06;;;;;;;2.92;1.58;;;;;;;16.78;55.50;102263.44;10532571;28;20074;-45
2024/01/07 10:55:11;;;;;;;2.42;1.45;;;;;;;16.83;55.72;102274.22;10513573;28;20487;-49
2024/01/07 11:00:18;;;;;;;1.48;1.20;;;;;;;16.85;56.14;102264.06;10532085;28;20043;-44
2024/01/07 11:05:37;;;;;;;1.95;1.50;;;;;;;16.83;55.11;102280.41;10531063;28;20028;-46
2024/01/07 11:10:42;;;;;;;2.20;1.83;;;;;;;16.77;55.42;102275.19;10493299;28;20020;-44
2024/01/07 11:15:52;;;;;;;3.13;1.75;;;;;;;16.73;54.60;102287.47;10515820;28;20111;-46
2024/01/07 11:20:53;;;;;;;2.75;1.48;;;;;;;16.81;54.51;102282.53;10538875;28;20413;-44
2024/01/07 11:25:53;;;;;;;5.30;1.40;;;;;;;16.92;53.81;102292.31;10538861;28;20027;-45
2024/01/07 11:30:54;;;;;;;3.93;2.00;;;;;;;17.13;53.79;102292.59;10538023;28;20028;-46
2024/01/07 11:35:56;;;;;;;5.57;1.95;;;;;;;17.18;53.20;102290.81;10538370;28;20832;-46
2024/01/07 11:40:57;;;;;;;6.82;1.90;;;;;;;17.36;54.64;102297.75;10535162;28;20020;-46
2024/01/07 11:45:57;;;;;;;5.57;2.08;;;;;;;17.54;53.84;102293.94;10520187;28;20450;-47
2024/01/07 11:50:58;;;;;;;11.80;2.45;;;;;;;17.34;55.67;102291.00;10535609;28;20028;-46
2024/01/07 11:55:58;;;;;;;7.05;1.95;;;;;;;17.47;54.82;102291.44;10531903;28;20414;-47
2024/01/07 12:00:58;;;;;;;11.73;2.57;;;;;;;17.42;55.18;102296.75;10508350;28;20059;-45
2024/01/07 12:05:59;;;;;;;12.67;2.80;;;;;;;17.40;55.72;102290.81;10517463;28;20292;-50
2024/01/07 12:10:59;;;;;;;18.00;2.93;;;;;;;17.34;55.27;102278.41;10536316;28;21007;-50
2024/01/07 12:16:00;;;;;;;23.67;3.45;;;;;;;17.10;53.72;102282.38;10519484;28;20296;-48
2024/01/07 12:21:00;;;;;;;6.78;1.90;;;;;;;17.08;52.93;102295.22;10509571;28;20017;-46
2024/01/07 12:26:10;;;;;;;10.18;2.10;;;;;;;16.97;54.55;102293.44;10535512;28;20070;-51
2024/01/07 12:31:11;;;;;;;10.00;2.20;;;;;;;16.89;53.90;102300.03;10524700;28;20028;-48
2024/01/07 12:36:11;;;;;;;6.35;2.13;;;;;;;16.85;52.87;102294.34;10517159;28;20062;-49
2024/01/07 12:41:11;;;;;;;6.75;2.05;;;;;;;16.75;52.25;102307.59;10527141;28;20024;-49
2024/01/07 12:46:12;;;;;;;11.33;1.70;;;;;;;16.67;51.97;102294.56;10521205;28;20565;-51
2024/01/07 12:51:13;;;;;;;8.05;2.83;;;;;;;16.62;51.04;102306.03;10527369;28;20266;-51
2024/01/07 12:56:13;;;;;;;18.13;2.53;;;;;;;16.95;51.23;102305.22;10517312;28;20028;-48
2024/01/07 13:01:14;;;;;;;70.83;9.53;;;;;;;16.93;48.93;102317.25;10519897;28;20024;-48
2024/01/07 13:06:14;;;;;;;40.67;6.00;;;;;;;17.15;49.46;102328.00;10534853;28;21063;-52
2024/01/07 13:11:16;;;;;;;47.13;6.05;;;;;;;16.84;52.61;102342.81;10513879;28;20040;-52
2024/01/07 13:16:18;;;;;;;32.65;5.47;;;;;;;16.73;51.32;102343.72;10534636;28;20019;-55
2024/01/07 13:21:20;;;;;;;33.28;6.70;;;;;;;16.64;51.78;102349.44;10516304;28;20030;-54
2024/01/07 13:26:20;;;;;;;26.85;4.75;;;;;;;16.61;51.71;102362.50;10534260;28;20039;-54
2024/01/07 13:31:20;;;;;;;29.53;4.33;;;;;;;16.63;52.98;102371.09;10533416;28;20020;-52
2024/01/07 13:36:21;;;;;;;22.77;5.10;;;;;;;16.70;52.12;102371.00;10533602;28;20278;-54
2024/01/07 13:41:21;;;;;;;24.33;5.13;;;;;;;16.72;52.86;102376.91;10532849;28;20278;-52
2024/01/07 13:46:23;;;;;;;18.55;4.72;;;;;;;16.73;54.14;102381.22;10515306;28;20281;-53
2024/01/07 13:51:23;;;;;;;21.45;4.05;;;;;;;16.74;54.06;102374.81;10533157;28;20371;-51
2024/01/07 13:56:24;;;;;;;18.67;3.33;;;;;;;16.77;54.48;102385.03;10533298;28;20020;-54
2024/01/07 14:01:24;;;;;;;19.13;3.60;;;;;;;16.76;54.65;102383.41;10532462;28;20399;-54
2024/01/07 14:06:24;;;;;;;13.17;3.63;;;;;;;16.80;54.06;102401.41;10532789;28;20334;-52
2024/01/07 14:11:26;;;;;;;17.67;3.30;;;;;;;16.76;54.54;102413.69;10526032;28;20377;-54
2024/01/07 14:16:27;;;;;;;19.50;3.65;;;;;;;16.76;55.53;102418.22;10532655;28;20016;-52
2024/01/07 14:21:30;;;;;;;24.60;4.20;;;;;;;16.80;55.47;102422.84;10532441;28;20689;-52
2024/01/07 14:26:30;;;;;;;12.65;3.10;;;;;;;16.86;54.43;102423.75;10532713;28;20035;-54
2024/01/07 14:31:30;;;;;;;11.90;2.53;;;;;;;16.81;54.04;102429.00;10532121;28;20024;-53
2024/01/07 14:36:31;;;;;;;11.50;2.30;;;;;;;16.75;54.71;102433.47;10515257;28;20665;-54
2024/01/07 14:41:31;;;;;;;11.50;2.90;;;;;;;16.74;54.85;102445.25;10522756;28;20281;-52
2024/01/07 14:46:32;;;;;;;7.23;2.37;;;;;;;16.72;55.54;102458.09;10532275;28;20028;-53
2024/01/07 14:51:32;;;;;;;8.88;2.22;;;;;;;16.71;53.89;102463.69;10519818;28;20293;-53
2024/01/07 14:56:32;;;;;;;12.52;1.90;;;;;;;16.72;53.85;102463.44;10532112;28;20032;-53
2024/01/07 15:01:33;;;;;;;9.35;2.17;;;;;;;16.70;55.28;102476.25;10538911;28;20028;-54
2024/01/07 15:06:43;;;;;;;6.60;2.00;;;;;;;16.74;53.66;102480.06;10539625;28;20802;-54
2024/01/07 15:11:48;;;;;;;7.13;1.30;;;;;;;16.77;53.48;102489.50;10519115;28;20415;-54
2024/01/07 15:16:53;;;;;;;15.98;2.67;;;;;;;16.74;54.98;102495.34;10539557;28;20032;-55
2024/01/07 15:21:54;;;;;;;4.65;1.90;;;;;;;16.70;54.61;102492.34;10539133;28;20059;-54
2024/01/07 15:26:54;;;;;;;5.83;1.30;;;;;;;16.65;53.01;102500.22;10538830;28;20487;-54
2024/01/07 15:31:55;;;;;;;4.07;1.60;;;;;;;16.67;54.03;102496.28;10533269;28;20278;-53
2024/01/07 15:36:55;;;;;;;5.30;2.10;;;;;;;16.69;53.59;102505.94;10537780;28;20456;-52
2024/01/07 15:41:57;;;;;;;2.07;1.20;;;;;;;16.69;54.39;102506.75;10534374;28;20448;-53
2024/01/07 15:46:57;;;;;;;3.30;1.10;;;;;;;16.72;54.59;102519.69;10508417;28;20374;-52
2024/01/07 15:51:57;;;;;;;12.57;1.80;;;;;;;16.72;54.13;102521.56;10537745;28;20368;-53
2024/01/07 15:56:58;;;;;;;10.67;1.93;;;;;;;16.79;55.03;102531.06;10537319;28;20277;-52
2024/01/07 16:01:58;;;;;;;8.80;1.52;;;;;;;16.76;55.65;102530.72;10536060;28;20308;-54
2024/01/07 16:06:59;;;;;;;13.38;1.80;;;;;;;16.78;54.80;102540.16;10537382;28;20032;-51
2024/01/07 16:12:00;;;;;;;11.70;2.50;;;;;;;16.74;55.53;102549.72;10518366;28;20047;-52
2024/01/07 16:17:04;;;;;;;15.02;2.40;;;;;;;16.73;55.21;102549.97;10518940;28;20088;-53
2024/01/07 16:22:10;;;;;;;10.55;2.97;;;;;;;16.72;54.05;102553.69;10536449;28;20405;-54
2024/01/07 16:27:11;;;;;;;7.75;2.47;;;;;;;16.77;53.42;102557.28;10536661;28;20024;-53
2024/01/07 16:32:13;;;;;;;9.88;2.17;;;;;;;16.77;54.52;102567.19;10536006;28;20107;-52
2024/01/07 16:37:14;;;;;;;13.63;3.30;;;;;;;16.89;53.60;102581.34;10536467;28;20455;-54
2024/01/07 16:42:15;;;;;;;28.35;5.72;;;;;;;17.10;56.55;102582.56;10535700;28;20051;-53
2024/01/07 16:47:16;;;;;;;14.05;3.55;;;;;;;17.15;54.03;102590.69;10534932;28;20016;-53
2024/01/07 16:52:16;;;;;;;18.50;4.35;;;;;;;17.12;57.39;102594.66;10534935;28;20349;-53
2024/01/07 16:57:17;;;;;;;19.43;6.53;;;;;;;17.23;56.80;102596.47;10535387;28;20817;-54
2024/01/07 17:02:18;;;;;;;20.07;5.17;;;;;;;17.39;56.07;102605.59;10534758;28;20281;-54
2024/01/07 17:07:20;;;;;;;19.55;4.63;;;;;;;17.45;55.22;102607.31;10521565;28;20290;-53
2024/01/07 17:12:20;;;;;;;20.45;5.07;;;;;;;17.41;55.57;102621.47;10532869;28;20048;-53
2024/01/07 17:17:20;;;;;;;18.27;4.93;;;;;;;17.37;54.87;102625.66;10534011;28;20566;-53
2024/01/07 17:22:21;;;;;;;13.45;4.18;;;;;;;17.33;56.05;102637.94;10533227;28;20262;-54
2024/01/07 17:27:21;;;;;;;17.47;5.20;;;;;;;17.28;55.82;102645.88;10534608;28;20032;-54
2024/01/07 17:32:24;;;;;;;10.20;3.90;;;;;;;17.19;56.17;102646.28;10533312;28;20270;-54
2024/01/07 17:37:26;;;;;;;30.23;5.38;;;;;;;17.10;56.48;102652.25;10533474;28;20270;-54
2024/01/07 17:42:26;;;;;;;41.28;7.05;;;;;;;17.11;56.06;102649.31;10515573;28;20073;-55
2024/01/07 17:47:26;;;;;;;19.50;4.47;;;;;;;17.13;56.15;102652.56;10533625;28;20101;-55
2024/01/07 17:52:27;;;;;;;23.00;4.78;;;;;;;17.01;55.64;102654.47;10533412;28;20300;-53
2024/01/07 17:57:30;;;;;;;26.92;5.20;;;;;;;17.02;55.59;102664.13;10533293;28;20103;-55
2024/01/07 18:02:30;;;;;;;29.50;4.97;;;;;;;17.11;55.70;102669.94;10532830;28;20023;-55
2024/01/07 18:07:30;;;;;;;20.97;4.67;;;;;;;17.13;56.20;102676.69;10532778;28;20036;-53
2024/01/07 18:12:31;;;;;;;20.07;3.63;;;;;;;17.08;55.71;102675.78;10513560;28;20660;-54
2024/01/07 18:17:33;;;;;;;20.25;5.32;;;;;;;17.06;55.86;102683.25;10531884;28;20269;-53
2024/01/07 18:22:34;;;;;;;10.85;3.53;;;;;;;17.05;54.16;102681.59;10513586;28;20024;-53
2024/01/07 18:27:36;;;;;;;12.80;4.13;;;;;;;17.04;54.12;102702.22;10540766;28;20028;-53
2024/01/07 18:32:37;;;;;;;13.30;3.85;;;;;;;17.06;54.55;102699.34;10540902;28;20063;-54
2024/01/07 18:37:39;;;;;;;12.30;4.45;;;;;;;17.05;53.87;102709.25;10541027;28;20026;-54
2024/01/07 18:42:39;;;;;;;10.77;2.90;;;;;;;17.05;54.46;102709.25;10540758;28;20024;-54
2024/01/07 18:47:40;;;;;;;11.50;3.47;;;;;;;17.09;52.82;102728.34;10540568;28;20040;-54
2024/01/07 18:52:41;;;;;;;17.63;3.75;;;;;;;17.11;52.61;102728.91;10526381;28;20277;-54
2024/01/07 18:57:43;;;;;;;7.13;3.10;;;;;;;17.17;51.85;102728.00;10539525;28;20020;-55
2024/01/07 19:02:43;;;;;;;11.05;2.92;;;;;;;17.13;52.96;102734.84;10539497;28;20064;-54
2024/01/07 19:07:44;;;;;;;6.87;2.43;;;;;;;17.09;52.79;102736.38;10521575;28;20036;-56
2024/01/07 19:12:44;;;;;;;9.43;2.38;;;;;;;17.13;52.71;102735.66;10513208;28;20378;-56
2024/01/07 19:17:49;;;;;;;4.13;2.53;;;;;;;17.16;51.77;102740.53;10495770;28;20355;-56
2024/01/07 19:22:49;;;;;;;10.55;2.90;;;;;;;17.14;52.33;102744.53;10506377;28;20298;-56
2024/01/07 19:27:50;;;;;;;8.83;2.70;;;;;;;17.15;52.55;102744.28;10539136;28;20020;-55
2024/01/07 19:32:50;;;;;;;9.15;3.15;;;;;;;17.19;51.70;102745.47;10535819;28;20274;-56
2024/01/07 19:37:52;;;;;;;7.20;2.63;;;;;;;17.17;50.57;102750.25;10537933;28;20024;-55
2024/01/07 19:42:54;;;;;;;5.45;3.00;;;;;;;17.19;51.49;102750.81;10537972;28;20034;-56
2024/01/07 19:47:56;;;;;;;7.63;2.88;;;;;;;17.20;51.54;102746.28;10538783;28;20025;-56
2024/01/07 19:52:56;;;;;;;7.93;2.70;;;;;;;17.20;51.02;102748.94;10537944;28;20028;-57
2024/01/07 19:57:56;;;;;;;5.60;2.63;;;;;;;17.19;51.44;102750.00;10538078;28;20532;-56
2024/01/07 20:02:57;;;;;;;4.70;2.33;;;;;;;17.21;51.30;102754.06;10520873;28;20051;-56
2024/01/07 20:07:57;;;;;;;5.73;2.17;;;;;;;17.20;50.35;102757.81;10511437;28;20293;-57
2024/01/07 20:12:58;;;;;;;3.40;2.10;;;;;;;17.25;50.61;102757.91;10512944;28;20286;-56
2024/01/07 20:17:58;;;;;;;4.82;2.47;;;;;;;17.24;50.38;102766.19;10489729;28;20287;-56
2024/01/07 20:22:59;;;;;;;3.17;1.77;;;;;;;17.23;51.13;102767.25;10494772;28;20633;-56
2024/01/07 20:28:00;;;;;;;5.13;2.53;;;;;;;17.21;51.17;102764.78;10495031;28;20312;-56
2024/01/07 20:33:00;;;;;;;4.57;2.53;;;;;;;17.19;51.21;102766.91;10494377;28;20025;-56
2024/01/07 20:38:01;;;;;;;3.95;2.22;;;;;;;17.18;52.01;102773.31;10491779;28;20024;-56
2024/01/07 20:43:01;;;;;;;3.77;2.20;;;;;;;17.19;52.01;102772.25;10469095;28;20021;-57
2024/01/07 20:48:02;;;;;;;3.88;2.20;;;;;;;17.17;51.96;102768.19;10463695;28;20681;-56
2024/01/07 20:53:04;;;;;;;4.10;2.03;;;;;;;17.16;51.78;102764.66;10468065;28;20021;-54
2024/01/07 20:58:06;;;;;;;4.22;2.20;;;;;;;17.21;51.25;102767.47;10488226;28;20024;-56
2024/01/07 21:03:08;;;;;;;4.75;1.95;;;;;;;17.19;51.02;102774.13;10493614;28;20023;-53
2024/01/07 21:08:08;;;;;;;5.18;2.42;;;;;;;17.20;52.40;102765.03;10492315;28;20354;-56
2024/01/07 21:13:09;;;;;;;2.90;1.70;;;;;;;17.16;51.28;102764.66;10506587;28;20060;-56
2024/01/07 21:18:14;;;;;;;3.85;1.70;;;;;;;17.17;51.70;102771.69;10517484;28;20538;-57
2024/01/07 21:23:15;;;;;;;3.45;1.70;;;;;;;17.18;51.05;102778.69;10534384;28;20024;-56
2024/01/07 21:28:16;;;;;;;3.65;1.55;;;;;;;17.17;51.99;102776.25;10520873;28;20048;-56
2024/01/07 21:33:17;;;;;;;2.70;1.67;;;;;;;17.17;51.99;102792.31;10515892;28;20083;-56
2024/01/07 21:38:17;;;;;;;2.90;1.52;;;;;;;17.16;52.35;102787.97;10534823;28;20020;-57
2024/01/07 21:43:18;;;;;;;3.30;1.67;;;;;;;17.18;51.64;102783.22;10533776;28;20032;-57
2024/01/07 21:48:18;;;;;;;2.93;1.33;;;;;;;17.16;52.32;102791.47;10533814;28;20781;-57
2024/01/07 21:53:18;;;;;;;5.15;1.77;;;;;;;17.18;52.33;102793.94;10515221;28;20292;-56
2024/01/07 21:58:19;;;;;;;3.10;1.80;;;;;;;17.15;52.06;102800.56;10507671;28;20073;-57
2024/01/07 22:03:19;;;;;;;5.17;1.83;;;;;;;17.17;52.25;102803.84;10526468;28;20744;-57
2024/01/07 22:08:19;;;;;;;3.23;1.63;;;;;;;17.17;52.10;102803.84;10530338;28;20317;-57
2024/01/07 22:13:20;;;;;;;3.07;1.20;;;;;;;17.17;52.61;102803.03;10515522;28;20344;-57
2024/01/07 22:18:20;;;;;;;5.30;1.83;;;;;;;17.19;51.08;102817.03;10533206;28;20268;-56
2024/01/07 22:23:20;;;;;;;3.73;1.33;;;;;;;17.16;51.26;102812.09;10532918;28;20471;-55
2024/01/07 22:28:20;;;;;;;2.70;1.37;;;;;;;17.17;51.56;102817.25;10532324;28;20301;-57
2024/01/07 22:33:22;;;;;;;3.05;1.42;;;;;;;17.17;51.16;102825.31;10532555;28;20759;-56
2024/01/07 22:38:22;;;;;;;2.25;1.23;;;;;;;17.16;51.77;102823.66;10532385;28;20020;-56
2024/01/07 22:43:22;;;;;;;4.25;1.30;;;;;;;17.20;52.39;102832.06;10532391;28;20383;-57
2024/01/07 22:48:23;;;;;;;2.00;1.20;;;;;;;17.17;51.53;102827.19;10531988;28;20509;-55
2024/01/07 22:53:23;;;;;;;2.47;1.00;;;;;;;17.19;51.34;102833.09;10532167;28;20520;-57
2024/01/07 22:58:24;;;;;;;4.40;1.65;;;;;;;17.19;51.11;102819.72;10531768;28;20074;-57